.
WxDataArchive / Data Records for 2008-09-15
2008-09-14 September 2008 2008-09-16

Data Records for Monday, 15 September 2008

Time	Temp	Chill	HIndex	Humid	Dewpt	 Wind 	HiWind	WindDir	Rain 	Barom 
-----	----	-----	------	-----	-----	------	------	-------	-----	----- 
00:00	60.2	60.2	60.2	95	58.8	0	2	292	0.00	29.780 
00:05	60.4	60.4	60.4	95	59.0	1	2	292	0.00	29.781 
00:10	60.4	60.4	60.4	95	59.0	1	3	292	0.00	29.781 
00:15	60.4	60.4	60.4	95	59.0	1	2	292	0.00	29.781 
00:20	60.4	60.4	60.4	95	59.0	0	1	292	0.00	29.782 
00:25	60.4	60.4	60.4	95	59.0	1	2	292	0.00	29.782 
00:30	60.2	60.2	60.2	95	58.8	1	3	292	0.00	29.782 
00:35	60.2	60.2	60.2	95	58.8	1	3	248	0.00	29.783 
00:40	60.1	60.1	60.1	95	58.7	1	3	248	0.00	29.783 
00:45	60.1	60.1	60.1	95	58.7	2	4	248	0.00	29.784 
00:50	60.1	60.1	60.1	95	58.7	2	3	270	0.00	29.787 
00:55	59.9	59.9	59.9	94	58.2	2	4	270	0.00	29.787 
01:00	59.8	59.8	59.8	94	58.1	1	4	292	0.00	29.789 
01:05	59.8	59.8	59.8	94	58.1	1	3	270	0.00	29.798 
01:10	59.6	59.6	59.6	94	57.9	1	4	270	0.00	29.798 
01:15	59.6	59.6	59.6	94	57.9	1	3	270	0.00	29.801 
01:20	59.5	59.5	59.5	94	57.8	1	4	270	0.00	29.801 
01:25	59.5	59.5	59.5	94	57.8	1	3	270	0.00	29.802 
01:30	59.5	59.5	59.5	94	57.8	1	3	270	0.00	29.803 
01:35	59.6	59.6	59.6	94	57.9	1	3	270	0.00	29.803 
01:40	59.6	59.6	59.6	93	57.6	1	5	270	0.00	29.803 
01:45	59.6	59.6	59.6	93	57.6	1	2	270	0.00	29.803 
01:50	59.6	59.6	59.6	93	57.6	1	4	270	0.00	29.805 
01:55	59.8	59.8	59.8	93	57.8	1	3	270	0.00	29.805 
02:00	59.8	59.8	59.8	93	57.8	1	3	270	0.00	29.809 
02:05	59.8	59.8	59.8	93	57.8	1	2	270	0.00	29.815 
02:10	59.8	59.8	59.8	93	57.8	1	3	270	0.00	29.815 
02:15	59.8	59.8	59.8	93	57.8	1	4	270	0.00	29.817 
02:20	59.8	59.8	59.8	92	57.5	1	3	248	0.00	29.819 
02:25	59.8	59.8	59.8	92	57.5	1	4	248	0.00	29.820 
02:30	59.8	59.8	59.8	92	57.5	2	4	270	0.00	29.820 
02:35	59.8	59.8	59.8	92	57.5	1	3	292	0.00	29.821 
02:40	59.8	59.8	59.8	92	57.5	1	3	315	0.00	29.820 
02:45	59.8	59.8	59.8	92	57.5	1	5	270	0.00	29.821 
02:50	59.8	59.8	59.8	92	57.5	1	3	270	0.00	29.823 
02:55	59.8	59.8	59.8	92	57.5	1	4	248	0.00	29.829 
03:00	59.8	59.8	59.8	91	57.2	1	3	270	0.00	29.834 
03:05	59.8	59.8	59.8	91	57.2	1	4	270	0.00	29.835 
03:10	59.8	59.8	59.8	91	57.2	1	3	292	0.00	29.836 
03:15	59.9	59.9	59.9	91	57.3	1	4	270	0.00	29.837 
03:20	59.9	59.9	59.9	91	57.3	2	3	270	0.00	29.840 
03:25	59.9	59.9	59.9	91	57.3	1	3	270	0.00	29.842 
03:30	59.8	59.8	59.8	91	57.2	1	3	292	0.00	29.844 
03:35	59.8	59.8	59.8	91	57.2	2	5	270	0.00	29.847 
03:40	59.6	59.6	59.6	91	57.0	1	3	270	0.00	29.845 
03:45	59.5	59.5	59.5	92	57.2	0	2	270	0.00	29.849 
03:50	59.3	59.3	59.3	92	57.0	0	2	270	0.00	29.852 
03:55	59.3	59.3	59.3	92	57.0	0	1	270	0.00	29.852 
04:00	59.2	59.2	59.2	92	56.9	0	2	270	0.00	29.852 
04:05	59.0	59.0	59.0	92	56.7	1	2	270	0.00	29.858 
04:10	58.9	58.9	58.9	92	56.6	0	2	270	0.00	29.860 
04:15	58.9	58.9	58.9	93	56.9	0	1	270	0.00	29.864 
04:20	58.7	58.7	58.7	93	56.7	0	2	270	0.00	29.868 
04:25	58.7	58.7	58.7	93	56.7	0	2	292	0.00	29.871 
04:30	58.9	58.9	58.9	93	56.9	0	1	292	0.00	29.872 
04:35	58.7	58.7	58.7	93	56.7	0	3	292	0.00	29.872 
04:40	58.9	58.9	58.9	93	56.9	0	2	315	0.00	29.873 
04:45	58.9	58.9	58.9	93	56.9	0	2	315	0.00	29.874 
04:50	58.9	58.9	58.9	93	56.9	0	1	315	0.00	29.874 
04:55	58.7	58.7	58.7	93	56.7	0	3	248	0.00	29.875 
05:00	58.7	58.7	58.7	93	56.7	0	1	270	0.00	29.877 
05:05	58.7	58.7	58.7	93	56.7	0	1	270	0.00	29.878 
05:10	58.7	58.7	58.7	93	56.7	0	1	270	0.00	29.881 
05:15	58.7	58.7	58.7	93	56.7	0	1	270	0.00	29.883 
05:20	58.7	58.7	58.7	93	56.7	0	0	---	0.00	29.886 
05:25	58.7	58.7	58.7	93	56.7	0	1	270	0.00	29.888 
05:30	58.7	58.7	58.7	93	56.7	0	2	270	0.00	29.890 
05:35	58.6	58.6	58.6	93	56.6	0	1	292	0.00	29.892 
05:40	58.4	58.4	58.4	93	56.4	0	1	292	0.00	29.902 
05:45	58.3	58.3	58.3	93	56.3	0	1	292	0.00	29.906 
05:50	58.3	58.3	58.3	93	56.3	0	1	292	0.00	29.907 
05:55	58.3	58.3	58.3	93	56.3	0	1	292	0.00	29.911 
06:00	58.1	58.1	58.1	93	56.1	0	1	292	0.00	29.917 
06:05	58.1	58.1	58.1	94	56.4	0	1	292	0.00	29.919 
06:10	58.1	58.1	58.1	93	56.1	0	1	292	0.00	29.922 
06:15	58.1	58.1	58.1	93	56.1	0	1	292	0.00	29.922 
06:20	58.0	58.0	58.0	93	56.0	0	1	292	0.00	29.923 
06:25	58.0	58.0	58.0	93	56.0	0	1	292	0.00	29.925 
06:30	57.8	57.8	57.8	93	55.8	0	1	292	0.00	29.931 
06:35	57.8	57.8	57.8	93	55.8	0	2	292	0.00	29.933 
06:40	57.8	57.8	57.8	93	55.8	0	1	292	0.00	29.933 
06:45	57.8	57.8	57.8	93	55.8	0	0	---	0.00	29.935 
06:50	57.8	57.8	57.8	93	55.8	0	0	---	0.00	29.937 
06:55	57.8	57.8	57.8	93	55.8	0	0	---	0.00	29.938 
07:00	57.8	57.8	57.8	93	55.8	0	0	---	0.00	29.939 
07:05	57.8	57.8	57.8	93	55.8	0	0	---	0.00	29.945 
07:10	58.0	58.0	58.0	94	56.3	0	0	---	0.00	29.951 
07:15	58.3	58.3	58.3	94	56.6	0	1	292	0.00	29.953 
07:20	58.4	58.4	58.4	93	56.4	0	1	292	0.00	29.953 
07:25	58.6	58.6	58.6	93	56.6	1	3	292	0.00	29.956 
07:30	58.9	58.9	58.9	92	56.6	0	2	292	0.00	29.961 
07:35	59.0	59.0	59.0	92	56.7	0	1	292	0.00	29.965 
07:40	59.2	59.2	59.2	90	56.3	0	2	292	0.00	29.968 
07:45	59.3	59.3	59.3	89	56.1	1	3	315	0.00	29.968 
07:50	59.5	59.5	59.5	89	56.3	0	2	315	0.00	29.969 
07:55	59.5	59.5	59.5	88	55.9	1	3	315	0.00	29.968 
08:00	59.6	59.6	59.6	88	56.0	0	1	315	0.00	29.970 
08:05	59.9	59.9	59.9	88	56.3	0	1	315	0.00	29.973 
08:10	59.9	59.9	59.9	86	55.7	1	3	292	0.00	29.978 
08:15	60.2	60.2	60.2	85	55.7	0	2	292	0.00	29.977 
08:20	60.4	60.4	60.4	84	55.5	1	3	292	0.00	29.981 
08:25	60.7	60.7	60.7	84	55.8	0	1	292	0.00	29.982 
08:30	60.9	60.9	60.9	84	56.0	1	3	292	0.00	29.983 
08:35	60.5	60.5	60.5	82	55.0	1	3	292	0.00	29.984 
08:40	60.5	60.5	60.5	82	55.0	1	3	292	0.00	29.985 
08:45	60.9	60.9	60.9	82	55.4	1	4	292	0.00	29.986 
08:50	61.3	61.3	61.3	81	55.4	0	2	292	0.00	29.986 
08:55	61.6	61.6	61.6	79	55.0	1	4	292	0.00	29.987 
09:00	61.6	61.6	61.6	78	54.7	2	5	315	0.00	29.992 
09:05	61.3	61.3	61.3	77	54.0	1	3	315	0.00	29.998 
09:10	61.3	61.3	61.3	77	54.0	1	3	315	0.00	29.999 
09:15	62.0	62.0	62.0	76	54.3	2	4	270	0.00	29.999 
09:20	62.3	62.3	62.3	73	53.5	1	4	292	0.00	29.999 
09:25	62.6	62.6	62.6	73	53.8	2	4	292	0.00	30.000 
09:30	63.2	63.2	63.2	75	55.1	1	4	270	0.00	30.001 
09:35	63.1	63.1	63.1	73	54.3	1	4	315	0.00	30.004 
09:40	62.4	62.4	62.4	74	54.0	1	3	315	0.00	30.008 
09:45	62.1	62.1	62.1	76	54.4	1	3	315	0.00	30.009 
09:50	62.3	62.3	62.3	75	54.3	1	3	292	0.00	30.010 
09:55	62.6	62.6	62.6	75	54.6	1	2	292	0.00	30.013 
10:00	62.7	62.7	62.7	74	54.3	1	3	292	0.00	30.015 
10:05	63.1	63.1	63.1	74	54.7	1	3	292	0.00	30.016 
10:10	63.5	63.5	63.5	72	54.3	1	4	315	0.00	30.018 
10:15	63.9	63.9	63.9	72	54.7	1	3	292	0.00	30.018 
10:20	64.2	64.2	64.2	71	54.6	2	6	270	0.00	30.021 
10:25	64.3	64.3	64.3	70	54.3	2	4	292	0.00	30.024 
10:30	64.8	64.8	64.8	70	54.8	1	4	315	0.00	30.027 
10:35	64.7	64.7	64.7	67	53.5	2	4	292	0.00	30.028 
10:40	65.0	65.0	65.0	69	54.6	1	4	292	0.00	30.029 
10:45	65.2	65.2	65.2	67	54.0	2	5	315	0.00	30.029 
10:50	65.3	65.3	65.3	67	54.1	1	3	315	0.00	30.029 
10:55	65.0	65.0	65.0	67	53.8	1	3	315	0.00	30.031 
11:00	64.8	64.8	64.8	69	54.4	1	5	292	0.00	30.033 
11:05	64.8	64.8	64.8	71	55.2	0	2	292	0.00	30.034 
11:10	65.3	65.3	65.3	68	54.5	1	3	292	0.00	30.036 
11:15	65.3	65.3	65.3	67	54.1	0	3	292	0.00	30.034 
11:20	65.5	65.5	65.5	66	53.8	1	3	292	0.00	30.032 
11:25	65.5	65.5	65.5	65	53.4	1	3	315	0.00	30.034 
11:30	65.6	65.6	65.6	65	53.5	1	4	270	0.00	30.039 
11:35	66.0	66.0	66.0	64	53.5	1	3	292	0.00	30.041 
11:40	65.6	65.6	65.6	65	53.5	1	3	292	0.00	30.043 
11:45	65.8	65.8	65.8	65	53.7	0	2	292	0.00	30.042 
11:50	66.8	66.8	66.8	65	54.6	1	3	292	0.00	30.040 
11:55	67.3	67.3	67.3	65	55.1	0	2	315	0.00	30.036 
12:00	67.3	67.3	67.3	65	55.1	1	3	270	0.00	30.033 
12:05	67.6	67.6	67.6	64	55.0	1	3	270	0.00	30.029 
12:10	67.8	67.8	67.8	64	55.2	1	3	292	0.00	30.028 
12:15	67.9	67.9	67.9	64	55.3	1	4	315	0.00	30.029 
12:20	68.1	68.1	68.1	63	55.0	1	4	292	0.00	30.028 
12:25	68.4	68.4	68.4	62	54.9	1	3	338	0.00	30.027 
12:30	68.3	68.3	68.3	62	54.8	1	3	292	0.00	30.027 
12:35	67.6	67.6	67.6	65	55.4	0	3	315	0.00	30.027 
12:40	68.3	68.3	68.3	64	55.6	0	3	315	0.00	30.028 
12:45	68.6	68.6	68.6	61	54.6	2	4	292	0.00	30.028 
12:50	68.4	68.4	68.4	61	54.4	1	4	292	0.00	30.028 
12:55	68.6	68.6	68.6	62	55.0	1	5	315	0.00	30.026 
13:00	68.4	68.4	68.4	62	54.9	1	3	315	0.00	30.027 
13:05	68.6	68.6	68.6	60	54.1	1	2	315	0.00	30.024 
13:10	68.8	68.8	68.8	63	55.7	1	2	338	0.00	30.019 
13:15	69.1	69.1	69.1	61	55.1	1	4	315	0.00	30.016 
13:20	69.6	69.6	69.6	61	55.5	1	3	0	0.00	30.015 
13:25	69.9	69.9	69.9	59	54.9	1	3	292	0.00	30.012 
13:30	69.9	69.9	69.9	62	56.3	1	3	315	0.00	30.012 
13:35	69.9	69.9	69.9	57	54.0	1	3	292	0.00	30.012 
13:40	69.8	69.8	69.8	57	53.9	2	4	270	0.00	30.012 
13:45	69.6	69.6	69.6	58	54.2	2	6	248	0.00	30.011 
13:50	69.9	69.9	69.9	59	54.9	1	3	315	0.00	30.011 
13:55	70.6	70.6	70.6	58	55.1	0	2	292	0.00	30.009 
14:00	70.9	70.9	70.9	59	55.8	1	5	22	0.00	30.011 
14:05	70.8	70.8	70.8	58	55.3	0	3	248	0.00	30.011 
14:10	70.9	70.9	70.9	56	54.4	1	2	248	0.00	30.011 
14:15	70.8	70.8	70.8	55	53.8	2	4	270	0.00	30.011 
14:20	70.4	70.4	70.4	57	54.4	1	5	292	0.00	30.010 
14:25	70.4	70.4	70.4	58	54.9	1	3	292	0.00	30.011 
14:30	69.8	69.8	69.8	57	53.9	1	3	292	0.00	30.011 
14:35	68.9	68.9	68.9	59	54.0	2	6	315	0.00	30.013 
14:40	68.6	68.6	68.6	60	54.1	1	2	270	0.00	30.015 
14:45	68.9	68.9	68.9	59	54.0	1	4	292	0.00	30.014 
14:50	69.3	69.3	69.3	58	53.9	1	3	292	0.00	30.013 
14:55	68.9	68.9	68.9	58	53.5	1	3	292	0.00	30.014 
15:00	69.3	69.3	69.3	60	54.8	1	3	270	0.00	30.014 
15:05	68.9	68.9	68.9	59	54.0	1	2	315	0.00	30.014 
15:10	68.4	68.4	68.4	59	53.5	1	4	315	0.00	30.014 
15:15	68.3	68.3	68.3	59	53.4	1	4	315	0.00	30.016 
15:20	68.9	68.9	68.9	60	54.4	1	4	248	0.00	30.014 
15:25	69.3	69.3	69.3	60	54.8	1	2	338	0.00	30.014 
15:30	68.6	68.6	68.6	62	55.0	1	3	315	0.00	30.017 
15:35	68.1	68.1	68.1	61	54.1	1	4	292	0.00	30.017 
15:40	67.9	67.9	67.9	62	54.4	0	2	292	0.00	30.018 
15:45	67.8	67.8	67.8	62	54.3	1	3	292	0.00	30.018 
15:50	67.4	67.4	67.4	63	54.4	0	2	315	0.00	30.019 
15:55	67.4	67.4	67.4	63	54.4	1	2	248	0.00	30.018 
16:00	67.4	67.4	67.4	62	53.9	1	3	292	0.00	30.019 
16:05	67.4	67.4	67.4	65	55.2	0	2	315	0.00	30.021 
16:10	67.4	67.4	67.4	64	54.8	0	2	315	0.00	30.024 
16:15	67.6	67.6	67.6	65	55.4	0	1	315	0.00	30.023 
16:20	67.3	67.3	67.3	64	54.7	0	2	315	0.00	30.023 
16:25	66.9	66.9	66.9	65	54.7	0	2	315	0.00	30.020 
16:30	66.8	66.8	66.8	65	54.6	0	2	315	0.00	30.021 
16:35	66.4	66.4	66.4	66	54.7	1	3	292	0.00	30.023 
16:40	66.3	66.3	66.3	68	55.4	0	2	292	0.00	30.026 
16:45	66.4	66.4	66.4	66	54.7	1	3	315	0.00	30.027 
16:50	66.3	66.3	66.3	66	54.6	0	2	270	0.00	30.027 
16:55	66.1	66.1	66.1	65	54.0	1	3	292	0.00	30.026 
17:00	66.0	66.0	66.0	65	53.9	0	2	292	0.00	30.027 
17:05	65.8	65.8	65.8	66	54.1	0	2	292	0.00	30.028 
17:10	65.6	65.6	65.6	67	54.3	0	2	292	0.00	30.030 
17:15	65.5	65.5	65.5	68	54.7	0	1	292	0.00	30.031 
17:20	65.3	65.3	65.3	68	54.5	0	2	292	0.00	30.034 
17:25	65.2	65.2	65.2	68	54.4	0	1	292	0.00	30.039 
17:30	65.2	65.2	65.2	69	54.8	0	1	292	0.00	30.045 
17:35	65.2	65.2	65.2	69	54.8	0	1	292	0.00	30.044 
17:40	65.2	65.2	65.2	69	54.8	0	1	292	0.00	30.045 
17:45	65.0	65.0	65.0	69	54.6	0	0	---	0.00	30.044 
17:50	65.0	65.0	65.0	70	55.0	0	1	292	0.00	30.046 
17:55	65.0	65.0	65.0	70	55.0	0	1	292	0.00	30.047 
18:00	65.0	65.0	65.0	70	55.0	0	1	292	0.00	30.048 
18:05	64.8	64.8	64.8	70	54.8	0	1	292	0.00	30.048 
18:10	64.7	64.7	64.7	69	54.3	0	3	292	0.00	30.050 
18:15	64.5	64.5	64.5	69	54.1	0	1	0	0.00	30.051 
18:20	64.5	64.5	64.5	69	54.1	0	1	0	0.00	30.054 
18:25	64.2	64.2	64.2	69	53.8	0	2	0	0.00	30.057 
18:30	64.0	64.0	64.0	69	53.6	0	0	---	0.00	30.058 
18:35	63.7	63.7	63.7	70	53.7	0	1	0	0.00	30.061 
18:40	63.4	63.4	63.4	71	53.8	0	0	---	0.00	30.064 
18:45	63.1	63.1	63.1	71	53.5	0	0	---	0.00	30.065 
18:50	62.7	62.7	62.7	72	53.5	0	0	---	0.00	30.066 
18:55	62.4	62.4	62.4	73	53.6	0	0	---	0.00	30.066 
19:00	62.1	62.1	62.1	74	53.7	0	0	---	0.00	30.067 
19:05	61.8	61.8	61.8	75	53.8	0	0	---	0.00	30.065 
19:10	61.5	61.5	61.5	76	53.9	0	0	---	0.00	30.065 
19:15	61.2	61.2	61.2	77	53.9	0	0	---	0.00	30.069 
19:20	61.0	61.0	61.0	77	53.7	0	0	---	0.00	30.074 
19:25	60.7	60.7	60.7	78	53.8	0	0	---	0.00	30.078 
19:30	60.5	60.5	60.5	78	53.6	0	0	---	0.00	30.078 
19:35	60.4	60.4	60.4	79	53.9	0	0	---	0.00	30.077 
19:40	60.4	60.4	60.4	80	54.2	0	0	---	0.00	30.080 
19:45	60.2	60.2	60.2	80	54.0	0	0	---	0.00	30.081 
19:50	60.1	60.1	60.1	80	53.9	0	0	---	0.00	30.082 
19:55	60.1	60.1	60.1	81	54.2	0	0	---	0.00	30.082 
20:00	59.9	59.9	59.9	82	54.4	0	0	---	0.00	30.081 
20:05	59.9	59.9	59.9	82	54.4	0	0	---	0.00	30.080 
20:10	59.8	59.8	59.8	82	54.3	0	0	---	0.00	30.080 
20:15	59.8	59.8	59.8	83	54.6	0	0	---	0.00	30.083 
20:20	59.8	59.8	59.8	83	54.6	0	0	---	0.00	30.085 
20:25	59.6	59.6	59.6	83	54.4	0	0	---	0.00	30.088 
20:30	59.6	59.6	59.6	84	54.8	0	0	---	0.00	30.092 
20:35	59.5	59.5	59.5	84	54.7	0	0	---	0.00	30.094 
20:40	59.5	59.5	59.5	84	54.7	0	0	---	0.00	30.095 
20:45	59.6	59.6	59.6	84	54.8	0	0	---	0.00	30.098 
20:50	59.8	59.8	59.8	83	54.6	0	0	---	0.00	30.102 
20:55	59.9	59.9	59.9	83	54.7	0	0	---	0.00	30.102 
21:00	59.9	59.9	59.9	82	54.4	0	0	---	0.00	30.105 
21:05	60.1	60.1	60.1	81	54.2	0	0	---	0.00	30.106 
21:10	60.2	60.2	60.2	81	54.3	0	1	0	0.00	30.107 
21:15	60.2	60.2	60.2	81	54.3	0	0	---	0.00	30.108 
21:20	60.4	60.4	60.4	81	54.5	0	0	---	0.00	30.108 
21:25	60.4	60.4	60.4	81	54.5	0	0	---	0.00	30.110 
21:30	60.4	60.4	60.4	81	54.5	0	0	---	0.00	30.109 
21:35	60.4	60.4	60.4	82	54.9	0	0	---	0.00	30.108 
21:40	60.2	60.2	60.2	82	54.7	0	0	---	0.00	30.110 
21:45	60.2	60.2	60.2	82	54.7	0	0	---	0.00	30.109 
21:50	60.2	60.2	60.2	82	54.7	0	0	---	0.00	30.107 
21:55	60.1	60.1	60.1	82	54.6	0	0	---	0.00	30.109 
22:00	60.1	60.1	60.1	82	54.6	0	0	---	0.00	30.110 
22:05	59.9	59.9	59.9	82	54.4	0	0	---	0.00	30.109 
22:10	59.9	59.9	59.9	83	54.7	0	0	---	0.00	30.108 
22:15	59.9	59.9	59.9	83	54.7	0	0	---	0.00	30.109 
22:20	59.8	59.8	59.8	83	54.6	0	0	---	0.00	30.110 
22:25	59.8	59.8	59.8	83	54.6	0	1	0	0.00	30.112 
22:30	59.8	59.8	59.8	84	55.0	0	1	0	0.00	30.113 
22:35	59.6	59.6	59.6	84	54.8	0	0	---	0.00	30.111 
22:40	59.6	59.6	59.6	84	54.8	0	1	0	0.00	30.113 
22:45	59.6	59.6	59.6	84	54.8	0	0	---	0.00	30.113 
22:50	59.5	59.5	59.5	84	54.7	0	0	---	0.00	30.113 
22:55	59.5	59.5	59.5	84	54.7	0	0	---	0.00	30.117 
23:00	59.3	59.3	59.3	84	54.5	0	0	---	0.00	30.120 
23:05	59.2	59.2	59.2	84	54.4	0	0	---	0.00	30.119 
23:10	59.2	59.2	59.2	84	54.4	0	0	---	0.00	30.120 
23:15	59.0	59.0	59.0	84	54.2	0	0	---	0.00	30.121 
23:20	58.9	58.9	58.9	84	54.1	0	0	---	0.00	30.121 
23:25	58.9	58.9	58.9	84	54.1	0	0	---	0.00	30.122 
23:30	58.7	58.7	58.7	84	53.9	0	0	---	0.00	30.123 
23:35	58.7	58.7	58.7	84	53.9	0	1	0	0.00	30.122 
23:40	58.6	58.6	58.6	84	53.8	0	1	0	0.00	30.122 
23:45	58.6	58.6	58.6	84	53.8	0	0	---	0.00	30.123 
23:50	58.4	58.4	58.4	84	53.6	0	1	0	0.00	30.124 
23:55	58.3	58.3	58.3	84	53.5	0	0	---	0.00	30.124 

CoCoRaHS
IN-AL-39
A2 Web Hosting
Creative Commons License
GoDaddy
Look for:

loaded 2017-12-13 19:39:10 • last modified 2010-11-18 10:43:29
Privacy PolicyDisclaimer
• wx.awcolley.com is powered by PmWiki v.2002016 •
• all content (unless otherwise noted) © 2017 A W Colley